sensor_id;sensor_type;location;lat;lon;timestamp;P1;durP1;ratioP1;P2;durP2;ratioP2
6751;SDS011;3413;47.680;9.166;2022-12-07T00:03:49;21.83;;;8.77;;
6751;SDS011;3413;47.680;9.166;2022-12-07T00:09:12;27.47;;;9.87;;
6751;SDS011;3413;47.680;9.166;2022-12-07T00:14:22;25.20;;;9.43;;
6751;SDS011;3413;47.680;9.166;2022-12-07T00:19:34;26.50;;;9.80;;
6751;SDS011;3413;47.680;9.166;2022-12-07T00:24:42;25.23;;;9.80;;
6751;SDS011;3413;47.680;9.166;2022-12-07T00:30:00;28.30;;;10.90;;
6751;SDS011;3413;47.680;9.166;2022-12-07T00:35:05;27.00;;;10.03;;
6751;SDS011;3413;47.680;9.166;2022-12-07T00:40:17;29.60;;;11.37;;
6751;SDS011;3413;47.680;9.166;2022-12-07T00:52:26;24.93;;;10.20;;
6751;SDS011;3413;47.680;9.166;2022-12-07T00:58:14;25.57;;;10.33;;
6751;SDS011;3413;47.680;9.166;2022-12-07T01:03:25;23.87;;;9.30;;
6751;SDS011;3413;47.680;9.166;2022-12-07T01:08:47;34.10;;;12.07;;
6751;SDS011;3413;47.680;9.166;2022-12-07T01:14:02;27.23;;;10.53;;
6751;SDS011;3413;47.680;9.166;2022-12-07T01:19:09;32.50;;;10.10;;
6751;SDS011;3413;47.680;9.166;2022-12-07T01:24:19;24.87;;;9.47;;
6751;SDS011;3413;47.680;9.166;2022-12-07T01:29:24;29.83;;;10.63;;
6751;SDS011;3413;47.680;9.166;2022-12-07T01:34:47;30.17;;;9.50;;
6751;SDS011;3413;47.680;9.166;2022-12-07T01:39:53;26.80;;;10.30;;
6751;SDS011;3413;47.680;9.166;2022-12-07T01:51:00;25.47;;;10.03;;
6751;SDS011;3413;47.680;9.166;2022-12-07T01:56:07;27.33;;;8.80;;
6751;SDS011;3413;47.680;9.166;2022-12-07T02:01:12;26.47;;;9.53;;
6751;SDS011;3413;47.680;9.166;2022-12-07T02:06:16;26.93;;;9.90;;
6751;SDS011;3413;47.680;9.166;2022-12-07T02:11:22;27.97;;;10.50;;
6751;SDS011;3413;47.680;9.166;2022-12-07T02:48:24;27.77;;;11.60;;
6751;SDS011;3413;47.680;9.166;2022-12-07T02:53:28;36.67;;;12.03;;
6751;SDS011;3413;47.680;9.166;2022-12-07T02:58:44;30.27;;;11.83;;
6751;SDS011;3413;47.680;9.166;2022-12-07T03:14:56;31.47;;;10.57;;
6751;SDS011;3413;47.680;9.166;2022-12-07T03:20:10;26.20;;;10.13;;
6751;SDS011;3413;47.680;9.166;2022-12-07T03:25:15;27.77;;;10.70;;
6751;SDS011;3413;47.680;9.166;2022-12-07T03:30:33;34.90;;;11.90;;
6751;SDS011;3413;47.680;9.166;2022-12-07T03:35:45;25.03;;;10.27;;
6751;SDS011;3413;47.680;9.166;2022-12-07T03:41:20;31.27;;;10.60;;
6751;SDS011;3413;47.680;9.166;2022-12-07T03:46:35;30.17;;;11.20;;
6751;SDS011;3413;47.680;9.166;2022-12-07T03:51:56;27.47;;;10.57;;
6751;SDS011;3413;47.680;9.166;2022-12-07T03:57:08;31.90;;;11.17;;
6751;SDS011;3413;47.680;9.166;2022-12-07T04:02:12;30.03;;;11.30;;
6751;SDS011;3413;47.680;9.166;2022-12-07T04:07:16;28.77;;;11.83;;
6751;SDS011;3413;47.680;9.166;2022-12-07T04:12:18;28.73;;;10.70;;
6751;SDS011;3413;47.680;9.166;2022-12-07T04:17:20;29.27;;;10.57;;
6751;SDS011;3413;47.680;9.166;2022-12-07T04:22:22;31.80;;;10.03;;
6751;SDS011;3413;47.680;9.166;2022-12-07T04:27:24;35.97;;;11.30;;
6751;SDS011;3413;47.680;9.166;2022-12-07T04:32:26;29.73;;;10.50;;
6751;SDS011;3413;47.680;9.166;2022-12-07T04:37:28;31.47;;;12.37;;
6751;SDS011;3413;47.680;9.166;2022-12-07T04:42:30;39.70;;;11.63;;
6751;SDS011;3413;47.680;9.166;2022-12-07T04:47:32;35.00;;;10.67;;
6751;SDS011;3413;47.680;9.166;2022-12-07T04:52:34;41.27;;;11.00;;
6751;SDS011;3413;47.680;9.166;2022-12-07T04:57:37;27.50;;;10.80;;
6751;SDS011;3413;47.680;9.166;2022-12-07T05:02:39;29.10;;;11.20;;
6751;SDS011;3413;47.680;9.166;2022-12-07T05:07:41;28.70;;;10.93;;
6751;SDS011;3413;47.680;9.166;2022-12-07T05:12:44;31.17;;;10.80;;
6751;SDS011;3413;47.680;9.166;2022-12-07T05:17:47;30.63;;;11.00;;
6751;SDS011;3413;47.680;9.166;2022-12-07T05:22:49;29.77;;;11.27;;
6751;SDS011;3413;47.680;9.166;2022-12-07T05:27:51;33.63;;;12.07;;
6751;SDS011;3413;47.680;9.166;2022-12-07T05:32:53;40.13;;;12.20;;
6751;SDS011;3413;47.680;9.166;2022-12-07T05:37:55;41.73;;;11.83;;
6751;SDS011;3413;47.680;9.166;2022-12-07T05:42:58;38.80;;;12.13;;
6751;SDS011;3413;47.680;9.166;2022-12-07T05:48:05;40.90;;;12.03;;
6751;SDS011;3413;47.680;9.166;2022-12-07T05:53:07;32.83;;;11.23;;
6751;SDS011;3413;47.680;9.166;2022-12-07T05:58:09;35.73;;;10.40;;
6751;SDS011;3413;47.680;9.166;2022-12-07T06:03:30;40.53;;;11.50;;
6751;SDS011;3413;47.680;9.166;2022-12-07T06:08:32;32.93;;;11.03;;
6751;SDS011;3413;47.680;9.166;2022-12-07T06:13:34;30.00;;;11.80;;
6751;SDS011;3413;47.680;9.166;2022-12-07T06:18:36;33.80;;;12.20;;
6751;SDS011;3413;47.680;9.166;2022-12-07T06:23:38;31.43;;;11.33;;
6751;SDS011;3413;47.680;9.166;2022-12-07T06:28:41;35.97;;;12.67;;
6751;SDS011;3413;47.680;9.166;2022-12-07T06:33:43;31.20;;;10.70;;
6751;SDS011;3413;47.680;9.166;2022-12-07T06:38:46;40.70;;;11.60;;
6751;SDS011;3413;47.680;9.166;2022-12-07T06:43:48;32.10;;;11.10;;
6751;SDS011;3413;47.680;9.166;2022-12-07T06:48:56;34.73;;;13.40;;
6751;SDS011;3413;47.680;9.166;2022-12-07T06:53:58;34.17;;;11.60;;
6751;SDS011;3413;47.680;9.166;2022-12-07T06:59:00;36.77;;;11.17;;
6751;SDS011;3413;47.680;9.166;2022-12-07T07:04:03;36.63;;;10.87;;
6751;SDS011;3413;47.680;9.166;2022-12-07T07:09:06;41.00;;;12.03;;
6751;SDS011;3413;47.680;9.166;2022-12-07T07:14:08;31.17;;;10.93;;
6751;SDS011;3413;47.680;9.166;2022-12-07T07:19:10;35.43;;;12.07;;
6751;SDS011;3413;47.680;9.166;2022-12-07T07:24:12;36.00;;;11.60;;
6751;SDS011;3413;47.680;9.166;2022-12-07T07:29:14;28.70;;;10.60;;
6751;SDS011;3413;47.680;9.166;2022-12-07T07:34:16;34.60;;;12.07;;
6751;SDS011;3413;47.680;9.166;2022-12-07T07:39:18;32.93;;;11.13;;
6751;SDS011;3413;47.680;9.166;2022-12-07T07:44:20;29.60;;;11.13;;
6751;SDS011;3413;47.680;9.166;2022-12-07T07:49:23;33.23;;;11.80;;
6751;SDS011;3413;47.680;9.166;2022-12-07T07:54:25;31.97;;;11.40;;
6751;SDS011;3413;47.680;9.166;2022-12-07T07:59:39;27.77;;;10.10;;
6751;SDS011;3413;47.680;9.166;2022-12-07T08:04:51;30.00;;;9.80;;
6751;SDS011;3413;47.680;9.166;2022-12-07T08:10:11;30.20;;;10.07;;
6751;SDS011;3413;47.680;9.166;2022-12-07T08:15:16;25.93;;;9.83;;
6751;SDS011;3413;47.680;9.166;2022-12-07T08:20:19;33.60;;;10.10;;
6751;SDS011;3413;47.680;9.166;2022-12-07T08:25:24;32.87;;;10.90;;
6751;SDS011;3413;47.680;9.166;2022-12-07T08:30:29;29.10;;;9.80;;
6751;SDS011;3413;47.680;9.166;2022-12-07T08:35:33;26.07;;;9.00;;
6751;SDS011;3413;47.680;9.166;2022-12-07T08:40:57;24.17;;;8.80;;
6751;SDS011;3413;47.680;9.166;2022-12-07T08:51:52;32.60;;;11.17;;
6751;SDS011;3413;47.680;9.166;2022-12-07T08:56:56;33.40;;;10.80;;
6751;SDS011;3413;47.680;9.166;2022-12-07T09:02:04;35.60;;;11.87;;
6751;SDS011;3413;47.680;9.166;2022-12-07T09:07:08;37.60;;;10.60;;
6751;SDS011;3413;47.680;9.166;2022-12-07T09:12:43;30.60;;;10.00;;
6751;SDS011;3413;47.680;9.166;2022-12-07T09:18:26;25.17;;;9.37;;
6751;SDS011;3413;47.680;9.166;2022-12-07T09:23:30;24.47;;;9.60;;
6751;SDS011;3413;47.680;9.166;2022-12-07T09:28:36;26.10;;;9.23;;
6751;SDS011;3413;47.680;9.166;2022-12-07T09:34:00;26.90;;;8.90;;
6751;SDS011;3413;47.680;9.166;2022-12-07T09:39:05;30.10;;;10.83;;
6751;SDS011;3413;47.680;9.166;2022-12-07T09:44:14;21.77;;;8.43;;
6751;SDS011;3413;47.680;9.166;2022-12-07T09:49:29;30.90;;;9.17;;
6751;SDS011;3413;47.680;9.166;2022-12-07T09:54:46;22.77;;;9.10;;
6751;SDS011;3413;47.680;9.166;2022-12-07T10:07:36;23.37;;;8.30;;
6751;SDS011;3413;47.680;9.166;2022-12-07T10:13:42;23.07;;;8.73;;
6751;SDS011;3413;47.680;9.166;2022-12-07T10:19:51;25.30;;;8.53;;
6751;SDS011;3413;47.680;9.166;2022-12-07T10:25:22;24.57;;;8.73;;
6751;SDS011;3413;47.680;9.166;2022-12-07T10:31:00;29.03;;;9.60;;
6751;SDS011;3413;47.680;9.166;2022-12-07T10:36:37;22.97;;;7.90;;
6751;SDS011;3413;47.680;9.166;2022-12-07T10:41:58;18.50;;;6.67;;
6751;SDS011;3413;47.680;9.166;2022-12-07T10:53:58;17.90;;;6.90;;
6751;SDS011;3413;47.680;9.166;2022-12-07T11:15:50;16.20;;;6.60;;
6751;SDS011;3413;47.680;9.166;2022-12-07T11:37:56;14.90;;;6.17;;
6751;SDS011;3413;47.680;9.166;2022-12-07T11:43:26;12.80;;;5.90;;
6751;SDS011;3413;47.680;9.166;2022-12-07T11:49:15;11.63;;;5.10;;
6751;SDS011;3413;47.680;9.166;2022-12-07T11:54:59;16.37;;;6.30;;
6751;SDS011;3413;47.680;9.166;2022-12-07T12:00:26;11.47;;;5.50;;
6751;SDS011;3413;47.680;9.166;2022-12-07T12:05:40;17.60;;;5.70;;
6751;SDS011;3413;47.680;9.166;2022-12-07T12:11:00;12.57;;;5.13;;
6751;SDS011;3413;47.680;9.166;2022-12-07T12:21:30;12.17;;;5.27;;
6751;SDS011;3413;47.680;9.166;2022-12-07T12:26:35;11.23;;;4.63;;
6751;SDS011;3413;47.680;9.166;2022-12-07T12:48:01;14.43;;;4.40;;
6751;SDS011;3413;47.680;9.166;2022-12-07T12:53:25;9.23;;;4.27;;
6751;SDS011;3413;47.680;9.166;2022-12-07T12:58:30;9.93;;;3.80;;
6751;SDS011;3413;47.680;9.166;2022-12-07T13:03:38;8.60;;;3.93;;
6751;SDS011;3413;47.680;9.166;2022-12-07T13:08:54;7.80;;;3.57;;
6751;SDS011;3413;47.680;9.166;2022-12-07T13:25:19;7.87;;;4.03;;
6751;SDS011;3413;47.680;9.166;2022-12-07T13:30:46;12.13;;;4.30;;
6751;SDS011;3413;47.680;9.166;2022-12-07T13:36:24;7.87;;;4.30;;
6751;SDS011;3413;47.680;9.166;2022-12-07T13:42:07;10.30;;;3.53;;
6751;SDS011;3413;47.680;9.166;2022-12-07T13:49:16;10.27;;;4.33;;
6751;SDS011;3413;47.680;9.166;2022-12-07T13:54:20;5.83;;;3.20;;
6751;SDS011;3413;47.680;9.166;2022-12-07T13:59:24;10.97;;;4.67;;
6751;SDS011;3413;47.680;9.166;2022-12-07T14:04:33;13.60;;;6.43;;
6751;SDS011;3413;47.680;9.166;2022-12-07T14:09:54;14.17;;;4.50;;
6751;SDS011;3413;47.680;9.166;2022-12-07T14:15:01;12.17;;;4.60;;
6751;SDS011;3413;47.680;9.166;2022-12-07T14:20:47;12.53;;;5.17;;
6751;SDS011;3413;47.680;9.166;2022-12-07T14:26:07;13.67;;;5.90;;
6751;SDS011;3413;47.680;9.166;2022-12-07T14:31:45;9.93;;;4.40;;
6751;SDS011;3413;47.680;9.166;2022-12-07T14:37:39;10.17;;;3.90;;
6751;SDS011;3413;47.680;9.166;2022-12-07T14:43:27;9.87;;;4.73;;
6751;SDS011;3413;47.680;9.166;2022-12-07T14:48:44;11.70;;;5.40;;
6751;SDS011;3413;47.680;9.166;2022-12-07T14:54:11;10.53;;;4.67;;
6751;SDS011;3413;47.680;9.166;2022-12-07T14:59:32;13.80;;;4.83;;
6751;SDS011;3413;47.680;9.166;2022-12-07T15:04:45;12.50;;;4.80;;
6751;SDS011;3413;47.680;9.166;2022-12-07T15:09:51;9.93;;;4.50;;
6751;SDS011;3413;47.680;9.166;2022-12-07T15:14:59;13.33;;;5.37;;
6751;SDS011;3413;47.680;9.166;2022-12-07T15:20:05;15.37;;;6.20;;
6751;SDS011;3413;47.680;9.166;2022-12-07T15:25:41;20.17;;;6.73;;
6751;SDS011;3413;47.680;9.166;2022-12-07T15:36:36;23.10;;;6.40;;
6751;SDS011;3413;47.680;9.166;2022-12-07T15:42:03;18.23;;;6.57;;
6751;SDS011;3413;47.680;9.166;2022-12-07T15:47:14;22.30;;;7.87;;
6751;SDS011;3413;47.680;9.166;2022-12-07T15:52:19;21.13;;;7.37;;
6751;SDS011;3413;47.680;9.166;2022-12-07T15:58:04;30.17;;;8.90;;
6751;SDS011;3413;47.680;9.166;2022-12-07T16:03:26;29.20;;;9.03;;
6751;SDS011;3413;47.680;9.166;2022-12-07T16:09:35;26.17;;;8.70;;
6751;SDS011;3413;47.680;9.166;2022-12-07T16:21:20;20.30;;;6.63;;
6751;SDS011;3413;47.680;9.166;2022-12-07T16:26:37;24.80;;;7.23;;
6751;SDS011;3413;47.680;9.166;2022-12-07T16:31:54;19.87;;;7.93;;
6751;SDS011;3413;47.680;9.166;2022-12-07T16:42:52;20.23;;;6.90;;
6751;SDS011;3413;47.680;9.166;2022-12-07T16:48:44;19.60;;;7.73;;
6751;SDS011;3413;47.680;9.166;2022-12-07T16:55:19;18.80;;;8.70;;
6751;SDS011;3413;47.680;9.166;2022-12-07T17:01:48;19.97;;;7.73;;
6751;SDS011;3413;47.680;9.166;2022-12-07T17:06:52;20.00;;;8.50;;
6751;SDS011;3413;47.680;9.166;2022-12-07T17:11:55;17.83;;;8.07;;
6751;SDS011;3413;47.680;9.166;2022-12-07T17:17:24;22.30;;;8.83;;
6751;SDS011;3413;47.680;9.166;2022-12-07T17:22:58;23.50;;;8.50;;
6751;SDS011;3413;47.680;9.166;2022-12-07T17:28:26;19.53;;;8.43;;
6751;SDS011;3413;47.680;9.166;2022-12-07T17:33:46;20.33;;;8.00;;
6751;SDS011;3413;47.680;9.166;2022-12-07T17:38:54;17.97;;;7.07;;
6751;SDS011;3413;47.680;9.166;2022-12-07T17:44:34;21.27;;;8.33;;
6751;SDS011;3413;47.680;9.166;2022-12-07T17:49:40;19.47;;;8.83;;
6751;SDS011;3413;47.680;9.166;2022-12-07T18:00:17;16.33;;;7.87;;
6751;SDS011;3413;47.680;9.166;2022-12-07T18:05:21;21.20;;;9.00;;
6751;SDS011;3413;47.680;9.166;2022-12-07T18:10:27;20.67;;;7.80;;
6751;SDS011;3413;47.680;9.166;2022-12-07T18:15:45;20.23;;;8.37;;
6751;SDS011;3413;47.680;9.166;2022-12-07T18:20:53;16.13;;;6.93;;
6751;SDS011;3413;47.680;9.166;2022-12-07T18:26:03;18.13;;;7.30;;
6751;SDS011;3413;47.680;9.166;2022-12-07T18:31:12;16.37;;;6.80;;
6751;SDS011;3413;47.680;9.166;2022-12-07T18:36:31;15.60;;;7.33;;
6751;SDS011;3413;47.680;9.166;2022-12-07T18:41:53;13.10;;;6.30;;
6751;SDS011;3413;47.680;9.166;2022-12-07T18:53:34;18.40;;;7.03;;
6751;SDS011;3413;47.680;9.166;2022-12-07T18:58:58;18.43;;;7.10;;
6751;SDS011;3413;47.680;9.166;2022-12-07T19:04:37;39.97;;;11.30;;
6751;SDS011;3413;47.680;9.166;2022-12-07T19:09:55;24.73;;;9.40;;
6751;SDS011;3413;47.680;9.166;2022-12-07T19:15:21;24.93;;;7.30;;
6751;SDS011;3413;47.680;9.166;2022-12-07T19:20:27;21.60;;;8.50;;
6751;SDS011;3413;47.680;9.166;2022-12-07T19:25:39;20.10;;;7.93;;
6751;SDS011;3413;47.680;9.166;2022-12-07T19:30:46;17.53;;;7.00;;
6751;SDS011;3413;47.680;9.166;2022-12-07T19:36:21;17.10;;;5.80;;
6751;SDS011;3413;47.680;9.166;2022-12-07T19:41:32;25.67;;;8.67;;
6751;SDS011;3413;47.680;9.166;2022-12-07T19:46:45;20.80;;;7.30;;
6751;SDS011;3413;47.680;9.166;2022-12-07T19:52:16;18.27;;;7.93;;
6751;SDS011;3413;47.680;9.166;2022-12-07T20:02:57;18.77;;;7.73;;
6751;SDS011;3413;47.680;9.166;2022-12-07T20:07:59;25.60;;;9.30;;
6751;SDS011;3413;47.680;9.166;2022-12-07T20:13:02;70.00;;;26.43;;
6751;SDS011;3413;47.680;9.166;2022-12-07T20:18:35;42.57;;;19.63;;
6751;SDS011;3413;47.680;9.166;2022-12-07T20:23:37;17.70;;;7.40;;
6751;SDS011;3413;47.680;9.166;2022-12-07T20:28:45;16.00;;;7.47;;
6751;SDS011;3413;47.680;9.166;2022-12-07T20:33:47;23.10;;;10.03;;
6751;SDS011;3413;47.680;9.166;2022-12-07T20:38:50;13.33;;;6.60;;
6751;SDS011;3413;47.680;9.166;2022-12-07T20:43:54;19.20;;;7.13;;
6751;SDS011;3413;47.680;9.166;2022-12-07T20:48:57;24.33;;;7.43;;
6751;SDS011;3413;47.680;9.166;2022-12-07T20:54:05;30.13;;;8.87;;
6751;SDS011;3413;47.680;9.166;2022-12-07T20:59:10;21.20;;;8.97;;
6751;SDS011;3413;47.680;9.166;2022-12-07T21:04:25;29.67;;;11.63;;
6751;SDS011;3413;47.680;9.166;2022-12-07T21:09:32;17.93;;;6.93;;
6751;SDS011;3413;47.680;9.166;2022-12-07T21:14:38;20.30;;;8.70;;
6751;SDS011;3413;47.680;9.166;2022-12-07T21:19:45;18.63;;;7.97;;
6751;SDS011;3413;47.680;9.166;2022-12-07T21:24:49;21.67;;;8.80;;
6751;SDS011;3413;47.680;9.166;2022-12-07T21:29:52;22.23;;;9.10;;
6751;SDS011;3413;47.680;9.166;2022-12-07T21:34:56;18.83;;;7.23;;
6751;SDS011;3413;47.680;9.166;2022-12-07T21:40:03;25.00;;;9.30;;
6751;SDS011;3413;47.680;9.166;2022-12-07T21:45:09;18.30;;;8.30;;
6751;SDS011;3413;47.680;9.166;2022-12-07T21:50:14;25.07;;;11.20;;
6751;SDS011;3413;47.680;9.166;2022-12-07T21:55:20;22.27;;;8.70;;
6751;SDS011;3413;47.680;9.166;2022-12-07T22:00:26;25.77;;;8.50;;
6751;SDS011;3413;47.680;9.166;2022-12-07T22:05:43;25.03;;;9.27;;
6751;SDS011;3413;47.680;9.166;2022-12-07T22:10:46;23.43;;;8.93;;
6751;SDS011;3413;47.680;9.166;2022-12-07T22:15:54;21.20;;;8.67;;
6751;SDS011;3413;47.680;9.166;2022-12-07T22:20:58;20.70;;;7.23;;
6751;SDS011;3413;47.680;9.166;2022-12-07T22:26:05;20.80;;;8.00;;
6751;SDS011;3413;47.680;9.166;2022-12-07T22:31:10;23.53;;;7.47;;
6751;SDS011;3413;47.680;9.166;2022-12-07T22:36:16;19.37;;;6.80;;
6751;SDS011;3413;47.680;9.166;2022-12-07T22:41:27;25.83;;;7.77;;
6751;SDS011;3413;47.680;9.166;2022-12-07T22:46:31;23.20;;;7.63;;
6751;SDS011;3413;47.680;9.166;2022-12-07T22:51:35;21.60;;;7.67;;
6751;SDS011;3413;47.680;9.166;2022-12-07T22:56:41;16.10;;;6.60;;
6751;SDS011;3413;47.680;9.166;2022-12-07T23:01:45;21.70;;;7.80;;
6751;SDS011;3413;47.680;9.166;2022-12-07T23:06:48;21.90;;;9.17;;
6751;SDS011;3413;47.680;9.166;2022-12-07T23:11:51;14.30;;;7.00;;
6751;SDS011;3413;47.680;9.166;2022-12-07T23:17:16;17.03;;;6.80;;
6751;SDS011;3413;47.680;9.166;2022-12-07T23:22:19;22.43;;;6.90;;
6751;SDS011;3413;47.680;9.166;2022-12-07T23:27:23;18.03;;;5.70;;
6751;SDS011;3413;47.680;9.166;2022-12-07T23:32:43;14.27;;;6.10;;
6751;SDS011;3413;47.680;9.166;2022-12-07T23:38:03;15.47;;;6.40;;
6751;SDS011;3413;47.680;9.166;2022-12-07T23:43:09;13.20;;;6.20;;
6751;SDS011;3413;47.680;9.166;2022-12-07T23:48:16;13.87;;;5.60;;
6751;SDS011;3413;47.680;9.166;2022-12-07T23:53:20;13.80;;;5.83;;
6751;SDS011;3413;47.680;9.166;2022-12-07T23:58:24;21.30;;;5.93;;
